createdAt,value
2023-10-30T00:00:48.777Z,74.13
2023-10-30T00:03:36.745Z,74.29
2023-10-30T00:06:05.274Z,74.22
2023-10-30T00:08:33.256Z,74.18
2023-10-30T00:11:01.168Z,74.36
2023-10-30T00:13:29.162Z,74.39
2023-10-30T00:15:57.770Z,74.36
2023-10-30T00:18:25.922Z,74.36
2023-10-30T00:20:53.930Z,74.54
2023-10-30T00:23:21.891Z,74.47
2023-10-30T00:25:49.995Z,74.51
2023-10-30T00:28:18.416Z,74.42
2023-10-30T00:30:46.492Z,74.37
2023-10-30T00:33:14.728Z,74.45
2023-10-30T00:35:44.208Z,74.39
2023-10-30T00:38:12.327Z,74.51
2023-10-30T00:40:40.303Z,74.45
2023-10-30T00:43:08.331Z,74.46
2023-10-30T00:45:36.529Z,74.47
2023-10-30T00:48:04.885Z,74.60
2023-10-30T00:50:33.878Z,74.49
2023-10-30T00:53:02.072Z,74.37
2023-10-30T00:55:30.143Z,74.43
2023-10-30T00:57:58.130Z,74.46
2023-10-30T01:00:26.202Z,74.48
2023-10-30T01:02:54.419Z,74.48
2023-10-30T01:05:22.638Z,74.28
2023-10-30T01:07:50.713Z,74.45
2023-10-30T01:10:18.739Z,74.46
2023-10-30T01:12:46.721Z,74.43
2023-10-30T01:15:17.408Z,74.49
2023-10-30T01:17:45.419Z,74.36
2023-10-30T01:20:14.605Z,74.40
2023-10-30T01:22:42.566Z,74.48
2023-10-30T01:25:10.556Z,74.46
2023-10-30T01:27:38.638Z,74.39
2023-10-30T01:30:07.390Z,74.45
2023-10-30T01:32:35.450Z,74.35
2023-10-30T01:35:03.607Z,74.52
2023-10-30T01:37:31.640Z,74.35
2023-10-30T01:39:59.553Z,74.35
2023-10-30T01:42:27.575Z,74.21
2023-10-30T01:44:57.351Z,74.29
2023-10-30T01:47:28.815Z,74.23
2023-10-30T01:49:58.735Z,74.23
2023-10-30T01:52:27.983Z,74.37
2023-10-30T01:54:56.367Z,74.29
2023-10-30T01:57:27.121Z,74.16
2023-10-30T01:59:56.454Z,74.21
2023-10-30T02:02:26.787Z,74.35
2023-10-30T02:04:54.858Z,74.23
2023-10-30T02:07:22.896Z,74.46
2023-10-30T02:09:51.915Z,74.37
2023-10-30T02:12:20.293Z,74.41
2023-10-30T02:14:48.275Z,74.37
2023-10-30T02:17:16.294Z,74.32
2023-10-30T02:19:44.331Z,74.43
2023-10-30T02:22:12.475Z,74.52
2023-10-30T02:24:40.510Z,74.47
2023-10-30T02:27:09.954Z,74.42
2023-10-30T02:29:37.977Z,74.53
2023-10-30T02:32:06.196Z,74.67
2023-10-30T02:34:34.249Z,74.55
2023-10-30T02:37:03.970Z,74.52
2023-10-30T02:39:34.571Z,74.46
2023-10-30T02:42:03.513Z,74.46
2023-10-30T02:44:31.942Z,74.50
2023-10-30T02:47:00.011Z,74.47
2023-10-30T02:49:28.602Z,74.49
2023-10-30T02:51:57.501Z,74.59
2023-10-30T02:54:25.553Z,74.65
2023-10-30T02:56:53.494Z,74.69
2023-10-30T02:59:21.516Z,74.57
2023-10-30T03:01:49.818Z,74.69
2023-10-30T03:04:18.717Z,74.71
2023-10-30T03:06:47.158Z,74.64
2023-10-30T03:09:15.282Z,74.58
2023-10-30T03:11:44.728Z,74.47
2023-10-30T03:14:13.229Z,74.60
2023-10-30T03:16:41.227Z,74.60
2023-10-30T03:19:10.261Z,74.57
2023-10-30T03:21:38.561Z,74.51
2023-10-30T03:24:07.283Z,74.56
2023-10-30T03:26:35.369Z,74.66
2023-10-30T03:29:03.517Z,74.63
2023-10-30T03:31:31.963Z,74.84
2023-10-30T03:34:00.241Z,74.82
2023-10-30T03:36:30.336Z,74.86
2023-10-30T03:38:58.950Z,74.90
2023-10-30T03:41:27.622Z,75.01
2023-10-30T03:43:55.612Z,75.08
2023-10-30T03:46:23.691Z,75.10
2023-10-30T03:48:51.684Z,75.16
2023-10-30T03:51:19.789Z,75.14
2023-10-30T03:53:48.359Z,75.34
2023-10-30T03:56:16.274Z,75.44
2023-10-30T03:58:44.180Z,75.35
2023-10-30T04:01:12.118Z,75.49
2023-10-30T04:03:40.165Z,75.59
2023-10-30T04:06:08.228Z,75.50
2023-10-30T04:08:36.262Z,75.44
2023-10-30T04:11:12.476Z,75.57
2023-10-30T04:13:40.575Z,75.50
2023-10-30T04:16:11.901Z,75.78
2023-10-30T04:18:40.096Z,75.78
2023-10-30T04:21:08.217Z,75.86
2023-10-30T04:23:38.189Z,75.83
2023-10-30T04:26:06.189Z,75.78
2023-10-30T04:28:34.267Z,75.89
2023-10-30T04:31:02.338Z,75.89
2023-10-30T04:33:30.330Z,75.91
2023-10-30T04:36:02.966Z,75.94
2023-10-30T04:38:32.481Z,75.97
2023-10-30T04:41:07.877Z,75.94
2023-10-30T04:43:36.178Z,75.97
2023-10-30T04:46:04.563Z,76.09
2023-10-30T04:48:32.812Z,76.02
2023-10-30T04:51:01.912Z,75.87
2023-10-30T04:53:32.887Z,75.81
2023-10-30T04:56:03.306Z,75.94
2023-10-30T04:58:31.234Z,76.03
2023-10-30T05:00:59.362Z,76.01
2023-10-30T05:03:27.373Z,76.04
2023-10-30T05:05:55.436Z,76.01
2023-10-30T05:08:23.414Z,76.08
2023-10-30T05:10:51.322Z,76.22
2023-10-30T05:13:19.377Z,76.09
2023-10-30T05:15:47.785Z,76.22
2023-10-30T05:18:18.730Z,76.26
2023-10-30T05:20:46.660Z,76.34
2023-10-30T05:23:14.687Z,76.22
2023-10-30T05:25:43.352Z,76.31
2023-10-30T05:28:11.748Z,76.38
2023-10-30T05:30:40.428Z,76.46
2023-10-30T05:33:08.777Z,77.39
2023-10-30T05:35:36.801Z,77.63
2023-10-30T05:38:06.480Z,76.84
2023-10-30T05:40:34.636Z,76.85
2023-10-30T05:43:02.681Z,76.83
2023-10-30T05:45:30.714Z,76.86
2023-10-30T05:47:58.792Z,76.87
2023-10-30T05:50:26.813Z,76.86
2023-10-30T05:52:54.837Z,76.94
2023-10-30T05:55:22.857Z,76.66
2023-10-30T05:57:50.904Z,76.88
2023-10-30T06:00:19.092Z,76.95
2023-10-30T06:02:47.222Z,76.83
2023-10-30T06:05:16.924Z,76.95
2023-10-30T06:07:44.964Z,77.08
2023-10-30T06:10:12.939Z,77.03
2023-10-30T06:12:41.805Z,77.17
2023-10-30T06:15:11.642Z,77.11
2023-10-30T06:17:39.763Z,77.29
2023-10-30T06:20:08.511Z,77.16
2023-10-30T06:22:36.439Z,77.10
2023-10-30T06:25:05.733Z,77.18
2023-10-30T06:27:33.974Z,77.30
2023-10-30T06:30:01.959Z,77.34
2023-10-30T06:32:30.119Z,77.05
2023-10-30T06:34:58.136Z,77.05
2023-10-30T06:37:26.205Z,77.12
2023-10-30T06:39:54.260Z,76.94
2023-10-30T06:42:22.285Z,77.23
2023-10-30T06:44:51.292Z,77.39
2023-10-30T06:47:19.813Z,77.34
2023-10-30T06:49:48.547Z,77.34
2023-10-30T06:52:16.443Z,77.01
2023-10-30T06:54:44.413Z,77.04
2023-10-30T06:57:13.348Z,76.98
2023-10-30T06:59:41.318Z,76.95
2023-10-30T07:02:09.233Z,76.74
2023-10-30T07:04:39.088Z,76.85
2023-10-30T07:07:07.096Z,76.72
2023-10-30T07:09:35.105Z,76.81
2023-10-30T07:12:03.385Z,76.93
2023-10-30T07:14:31.348Z,76.63
2023-10-30T07:17:04.812Z,76.57
2023-10-30T07:19:33.406Z,76.51
2023-10-30T07:22:03.642Z,76.37
2023-10-30T07:24:31.861Z,76.33
2023-10-30T07:26:59.957Z,76.27
2023-10-30T07:29:27.906Z,76.50
2023-10-30T07:31:56.575Z,76.24
2023-10-30T07:34:24.853Z,76.26
2023-10-30T07:36:52.868Z,76.31
2023-10-30T07:39:20.880Z,76.16
2023-10-30T07:41:49.000Z,76.02
2023-10-30T07:44:16.950Z,76.04
2023-10-30T07:46:45.297Z,76.10
2023-10-30T07:49:13.570Z,76.15
2023-10-30T07:51:41.720Z,76.01
2023-10-30T07:54:09.737Z,75.85
2023-10-30T07:56:37.747Z,75.88
2023-10-30T07:59:08.762Z,75.83
2023-10-30T08:01:36.998Z,76.47
2023-10-30T08:04:05.463Z,75.91
2023-10-30T08:06:33.915Z,75.42
2023-10-30T08:09:02.316Z,75.29
2023-10-30T08:11:31.542Z,75.52
2023-10-30T08:13:59.660Z,75.36
2023-10-30T08:16:27.882Z,76.08
2023-10-30T08:18:56.015Z,75.71
2023-10-30T08:21:24.090Z,75.51
2023-10-30T08:23:52.075Z,75.09
2023-10-30T08:26:20.141Z,75.11
2023-10-30T08:28:48.171Z,74.87
2023-10-30T08:31:19.083Z,75.06
2023-10-30T08:33:47.140Z,74.62
2023-10-30T08:36:24.705Z,75.09
2023-10-30T08:38:55.532Z,74.62
2023-10-30T08:41:25.208Z,74.41
2023-10-30T08:43:54.105Z,74.45
2023-10-30T08:46:22.511Z,74.26
2023-10-30T08:48:50.568Z,74.21
2023-10-30T08:51:18.704Z,74.19
2023-10-30T08:53:47.362Z,74.02
2023-10-30T08:56:15.572Z,73.88
2023-10-30T08:58:43.698Z,73.83
2023-10-30T09:01:11.597Z,73.71
2023-10-30T09:03:42.692Z,73.62
2023-10-30T09:06:10.935Z,73.57
2023-10-30T09:08:39.060Z,73.50
2023-10-30T09:11:07.312Z,73.32
2023-10-30T09:13:35.548Z,73.30
2023-10-30T09:16:03.839Z,73.17
2023-10-30T09:18:31.903Z,73.01
2023-10-30T09:21:00.212Z,72.67
2023-10-30T09:23:28.147Z,72.64
2023-10-30T09:25:56.264Z,72.60
2023-10-30T09:28:26.120Z,72.47
2023-10-30T09:30:54.359Z,72.50
2023-10-30T09:33:22.587Z,72.36
2023-10-30T09:35:50.813Z,72.26
2023-10-30T09:38:18.944Z,72.10
2023-10-30T09:40:59.807Z,72.08
2023-10-30T09:43:29.537Z,72.10
2023-10-30T09:46:00.038Z,71.75
2023-10-30T09:48:29.976Z,71.55
2023-10-30T09:50:59.809Z,71.48
2023-10-30T09:53:28.910Z,71.22
2023-10-30T09:55:59.115Z,71.03
2023-10-30T09:58:27.088Z,70.87
2023-10-30T10:00:55.236Z,70.72
2023-10-30T10:03:23.366Z,70.63
2023-10-30T10:05:58.594Z,70.61
2023-10-30T10:08:27.563Z,70.44
2023-10-30T10:11:02.822Z,70.33
2023-10-30T10:13:35.314Z,70.07
2023-10-30T10:16:03.863Z,69.67
2023-10-30T10:18:33.522Z,69.58
2023-10-30T10:21:09.429Z,69.43
2023-10-30T10:23:38.844Z,69.26
2023-10-30T10:26:14.966Z,69.10
2023-10-30T10:28:44.354Z,68.91
2023-10-30T10:31:12.516Z,68.70
2023-10-30T10:33:42.624Z,68.59
2023-10-30T10:36:14.584Z,68.45
2023-10-30T10:38:57.732Z,68.03
2023-10-30T10:41:29.342Z,67.85
2023-10-30T10:43:58.190Z,67.54
2023-10-30T10:46:26.385Z,67.47
2023-10-30T10:48:54.636Z,67.45
2023-10-30T10:51:36.742Z,67.34
2023-10-30T10:54:28.178Z,67.37
2023-10-30T10:56:57.674Z,67.10
2023-10-30T10:59:30.772Z,66.97
2023-10-30T11:02:00.262Z,66.98
2023-10-30T11:04:30.540Z,66.62
2023-10-30T11:07:07.910Z,66.47
2023-10-30T11:09:46.158Z,66.38
2023-10-30T11:12:39.334Z,66.07
2023-10-30T11:15:26.960Z,65.68
2023-10-30T11:18:23.373Z,65.68
2023-10-30T11:21:12.609Z,65.44
2023-10-30T11:23:48.607Z,65.07
2023-10-30T11:26:31.686Z,64.97
2023-10-30T11:29:00.434Z,65.01
2023-10-30T11:31:34.124Z,64.91
2023-10-30T11:34:14.149Z,64.57
2023-10-30T11:36:42.605Z,64.35
2023-10-30T11:39:11.909Z,64.33
2023-10-30T11:41:44.282Z,64.22
2023-10-30T11:44:13.244Z,64.13
2023-10-30T11:46:43.014Z,64.13
2023-10-30T11:49:15.081Z,63.70
2023-10-30T11:51:44.150Z,63.32
2023-10-30T11:54:12.319Z,63.34
2023-10-30T11:56:48.313Z,63.13
2023-10-30T11:59:16.804Z,62.80
2023-10-30T12:01:46.896Z,62.86
2023-10-30T12:04:23.963Z,62.71
2023-10-30T12:06:52.329Z,62.65
2023-10-30T12:09:21.702Z,62.47
2023-10-30T12:11:50.893Z,62.30
2023-10-30T12:14:20.484Z,62.41
2023-10-30T12:16:49.891Z,62.24
2023-10-30T12:19:21.804Z,62.25
2023-10-30T12:21:51.999Z,62.16
2023-10-30T12:24:20.594Z,61.95
2023-10-30T12:26:49.820Z,61.75
2023-10-30T12:29:24.596Z,61.62
2023-10-30T12:32:04.661Z,61.56
2023-10-30T12:34:36.663Z,61.49
2023-10-30T12:37:27.349Z,61.28
2023-10-30T12:40:06.074Z,61.06
2023-10-30T12:42:39.420Z,60.94
2023-10-30T12:45:09.079Z,60.89
2023-10-30T12:47:37.994Z,60.90
2023-10-30T12:50:07.388Z,60.99
2023-10-30T12:52:35.773Z,60.87
2023-10-30T12:55:04.037Z,60.81
2023-10-30T12:57:32.433Z,60.79
2023-10-30T13:00:00.374Z,60.70
2023-10-30T13:02:29.099Z,60.55
2023-10-30T13:04:57.321Z,60.38
2023-10-30T13:07:25.322Z,60.12
2023-10-30T13:09:53.370Z,60.10
2023-10-30T13:12:21.684Z,59.98
2023-10-30T13:14:49.946Z,60.09
2023-10-30T13:17:18.380Z,59.99
2023-10-30T13:19:46.507Z,60.00
2023-10-30T13:22:15.014Z,60.11
2023-10-30T13:24:43.074Z,59.94
2023-10-30T13:27:12.601Z,59.84
2023-10-30T13:29:40.630Z,59.83
2023-10-30T13:32:08.596Z,59.82
2023-10-30T13:34:36.561Z,59.86
2023-10-30T13:37:04.791Z,59.68
2023-10-30T13:39:32.810Z,59.69
2023-10-30T13:42:00.846Z,59.76
2023-10-30T13:44:29.076Z,59.77
2023-10-30T13:46:57.111Z,59.87
2023-10-30T13:49:25.032Z,60.06
2023-10-30T13:51:53.002Z,60.08
2023-10-30T13:54:21.153Z,60.02
2023-10-30T13:56:49.161Z,59.92
2023-10-30T13:59:17.196Z,59.99
2023-10-30T14:01:45.198Z,60.04
2023-10-30T14:04:14.085Z,60.06
2023-10-30T14:06:42.173Z,59.93
2023-10-30T14:09:10.266Z,59.98
2023-10-30T14:11:38.208Z,59.91
2023-10-30T14:14:06.176Z,59.82
2023-10-30T14:16:34.387Z,60.14
2023-10-30T14:19:03.946Z,60.24
2023-10-30T14:21:35.223Z,60.13
2023-10-30T14:24:03.371Z,60.21
2023-10-30T14:26:33.725Z,60.30
2023-10-30T14:29:01.730Z,60.42
2023-10-30T14:31:29.797Z,60.55
2023-10-30T14:33:57.858Z,60.54
2023-10-30T14:36:25.832Z,60.47
2023-10-30T14:38:53.819Z,60.63
2023-10-30T14:41:21.824Z,60.55
2023-10-30T14:43:49.791Z,60.59
2023-10-30T14:46:19.057Z,60.54
2023-10-30T14:48:47.179Z,60.74
2023-10-30T14:51:15.220Z,60.70
2023-10-30T14:53:43.336Z,60.74
2023-10-30T14:56:12.199Z,60.84
2023-10-30T14:58:40.221Z,60.96
2023-10-30T15:01:08.530Z,61.11
2023-10-30T15:03:36.509Z,61.14
2023-10-30T15:06:04.875Z,61.24
2023-10-30T15:08:32.917Z,61.33
2023-10-30T15:11:00.951Z,61.51
2023-10-30T15:13:29.038Z,61.86
2023-10-30T15:15:57.113Z,61.82
2023-10-30T15:18:25.157Z,62.01
2023-10-30T15:20:53.452Z,62.23
2023-10-30T15:23:21.478Z,62.32
2023-10-30T15:25:49.499Z,62.32
2023-10-30T15:28:17.430Z,62.49
2023-10-30T15:30:51.415Z,62.49
2023-10-30T15:33:19.742Z,62.81
2023-10-30T15:35:48.178Z,62.86
2023-10-30T15:38:16.243Z,62.98
2023-10-30T15:40:44.264Z,63.12
2023-10-30T15:43:12.289Z,63.23
2023-10-30T15:45:40.318Z,63.34
2023-10-30T15:48:08.627Z,63.39
2023-10-30T15:50:38.175Z,63.62
2023-10-30T15:58:45.117Z,64.12
2023-10-30T16:01:01.200Z,64.34
2023-10-30T16:03:32.290Z,64.53
2023-10-30T16:16:06.387Z,65.42
2023-10-30T16:18:34.519Z,65.44
2023-10-30T16:23:34.785Z,66.00
2023-10-30T16:26:02.762Z,66.07
2023-10-30T16:28:30.761Z,66.15
2023-10-30T16:30:58.947Z,66.45
2023-10-30T16:33:26.950Z,66.57
2023-10-30T16:36:04.226Z,66.81
2023-10-30T16:38:32.295Z,66.91
2023-10-30T16:41:01.422Z,67.03
2023-10-30T16:43:29.633Z,67.21
2023-10-30T16:45:57.845Z,67.33
2023-10-30T16:48:26.080Z,67.55
2023-10-30T16:50:54.138Z,67.78
2023-10-30T16:53:22.239Z,67.95
2023-10-30T16:55:50.992Z,68.07
2023-10-30T16:58:19.101Z,68.27
2023-10-30T17:00:47.527Z,68.27
2023-10-30T17:03:15.806Z,68.37
2023-10-30T17:05:44.885Z,68.33
2023-10-30T17:08:12.909Z,68.45
2023-10-30T17:10:40.933Z,68.41
2023-10-30T17:13:09.708Z,68.59
2023-10-30T17:15:37.992Z,68.72
2023-10-30T17:18:06.064Z,68.67
2023-10-30T17:20:34.115Z,68.69
2023-10-30T17:23:02.091Z,68.62
2023-10-30T17:25:33.629Z,68.75
2023-10-30T17:28:02.289Z,68.93
2023-10-30T17:30:30.255Z,69.05
2023-10-30T17:32:58.486Z,68.97
2023-10-30T17:35:26.509Z,69.14
2023-10-30T17:37:54.616Z,69.21
2023-10-30T17:40:22.655Z,69.28
2023-10-30T17:42:50.648Z,69.30
2023-10-30T17:45:20.499Z,69.34
2023-10-30T17:47:48.601Z,69.50
2023-10-30T17:50:17.008Z,69.53
2023-10-30T17:52:45.110Z,69.48
2023-10-30T17:55:13.147Z,69.65
2023-10-30T17:57:41.346Z,69.58
2023-10-30T18:00:09.711Z,69.61
2023-10-30T18:02:41.540Z,69.65
2023-10-30T18:05:09.902Z,69.77
2023-10-30T18:07:37.950Z,69.73
2023-10-30T18:10:06.571Z,69.73
2023-10-30T18:12:34.886Z,69.78
2023-10-30T18:15:03.004Z,69.86
2023-10-30T18:17:31.058Z,70.06
2023-10-30T18:19:59.183Z,70.12
2023-10-30T18:22:27.317Z,70.16
2023-10-30T18:24:55.450Z,70.27
2023-10-30T18:27:23.393Z,70.25
2023-10-30T18:29:51.820Z,70.28
2023-10-30T18:32:20.148Z,70.48
2023-10-30T18:34:48.173Z,70.41
2023-10-30T18:37:16.203Z,70.50
2023-10-30T18:39:44.169Z,70.46
2023-10-30T18:42:14.558Z,70.47
2023-10-30T18:44:42.562Z,70.64
2023-10-30T18:47:10.657Z,70.50
2023-10-30T18:49:38.848Z,70.60
2023-10-30T18:52:10.194Z,70.66
2023-10-30T18:54:38.710Z,70.66
2023-10-30T18:57:07.341Z,70.71
2023-10-30T18:59:36.678Z,70.67
2023-10-30T19:02:04.943Z,70.76
2023-10-30T19:04:33.070Z,70.63
2023-10-30T19:07:01.532Z,70.67
2023-10-30T19:09:30.529Z,70.75
2023-10-30T19:11:59.108Z,70.87
2023-10-30T19:14:27.839Z,70.95
2023-10-30T19:16:55.909Z,70.90
2023-10-30T19:19:24.137Z,70.91
2023-10-30T19:21:52.146Z,70.90
2023-10-30T19:24:20.112Z,71.02
2023-10-30T19:26:48.091Z,71.23
2023-10-30T19:29:16.090Z,71.29
2023-10-30T19:31:44.234Z,71.37
2023-10-30T19:34:12.954Z,71.33
2023-10-30T19:36:42.201Z,71.36
2023-10-30T19:39:10.941Z,71.42
2023-10-30T19:41:39.000Z,71.47
2023-10-30T19:44:07.062Z,71.56
2023-10-30T19:46:39.141Z,71.58
2023-10-30T19:49:09.715Z,71.68
2023-10-30T19:52:01.680Z,71.63
2023-10-30T19:54:33.969Z,71.68
2023-10-30T19:57:02.032Z,71.73
2023-10-30T19:59:30.495Z,71.89
2023-10-30T20:02:01.135Z,71.88
2023-10-30T20:04:29.236Z,72.01
2023-10-30T20:06:57.289Z,72.08
2023-10-30T20:09:34.589Z,71.99
2023-10-30T20:12:10.493Z,72.01
2023-10-30T20:14:38.582Z,72.20
2023-10-30T20:17:06.515Z,72.20
2023-10-30T20:19:34.629Z,72.24
2023-10-30T20:22:02.725Z,72.01
2023-10-30T20:24:30.678Z,72.15
2023-10-30T20:26:58.631Z,72.20
2023-10-30T20:29:26.622Z,72.11
2023-10-30T20:31:54.607Z,72.20
2023-10-30T20:34:22.636Z,72.16
2023-10-30T20:36:51.344Z,72.16
2023-10-30T20:39:21.518Z,72.29
2023-10-30T20:41:50.069Z,72.30
2023-10-30T20:44:18.038Z,72.31
2023-10-30T20:46:46.704Z,72.33
2023-10-30T20:49:14.912Z,72.29
2023-10-30T20:51:42.897Z,72.32
2023-10-30T20:54:11.279Z,72.39
2023-10-30T20:56:39.245Z,72.44
2023-10-30T20:59:07.274Z,72.47
2023-10-30T21:01:35.372Z,72.57
2023-10-30T21:04:03.859Z,72.67
2023-10-30T21:06:31.926Z,72.65
2023-10-30T21:09:01.311Z,72.70
2023-10-30T21:11:29.530Z,72.91
2023-10-30T21:13:57.559Z,73.05
2023-10-30T21:16:25.651Z,73.08
2023-10-30T21:18:53.628Z,73.15
2023-10-30T21:21:21.613Z,73.46
2023-10-30T21:23:49.548Z,73.99
2023-10-30T21:26:17.539Z,74.28
2023-10-30T21:28:45.603Z,74.47
2023-10-30T21:31:13.600Z,74.61
2023-10-30T21:33:41.542Z,74.80
2023-10-30T21:36:09.800Z,75.08
2023-10-30T21:38:37.807Z,75.17
2023-10-30T21:41:05.966Z,75.05
2023-10-30T21:43:34.075Z,75.18
2023-10-30T21:46:02.107Z,75.43
2023-10-30T21:48:31.251Z,75.39
2023-10-30T21:50:59.262Z,75.42
2023-10-30T21:53:27.609Z,75.54
2023-10-30T21:55:55.675Z,75.62
2023-10-30T21:58:23.756Z,75.95
2023-10-30T22:00:51.774Z,75.97
2023-10-30T22:03:19.790Z,76.19
2023-10-30T22:05:47.939Z,76.39
2023-10-30T22:08:15.949Z,76.51
2023-10-30T22:10:43.918Z,76.62
2023-10-30T22:13:11.956Z,76.60
2023-10-30T22:15:40.860Z,76.74
2023-10-30T22:18:08.949Z,77.00
2023-10-30T22:20:37.077Z,77.01
2023-10-30T22:23:05.149Z,77.12
2023-10-30T22:25:33.174Z,77.20
2023-10-30T22:28:01.215Z,77.42
2023-10-30T22:30:29.236Z,77.41
2023-10-30T22:32:57.340Z,77.48
2023-10-30T22:35:25.332Z,77.53
2023-10-30T22:37:53.305Z,77.56
2023-10-30T22:40:21.360Z,77.56
2023-10-30T22:42:49.337Z,77.61
2023-10-30T22:45:17.349Z,77.68
2023-10-30T22:47:45.548Z,77.73
2023-10-30T22:50:14.048Z,77.61
2023-10-30T22:52:41.978Z,77.70
2023-10-30T22:55:10.637Z,77.76
2023-10-30T22:57:38.645Z,77.76
2023-10-30T23:00:17.611Z,77.73
2023-10-30T23:02:45.717Z,77.81
2023-10-30T23:05:14.017Z,77.95
2023-10-30T23:07:42.166Z,77.97
2023-10-30T23:10:10.285Z,78.05
2023-10-30T23:12:39.186Z,78.17
2023-10-30T23:15:08.778Z,78.10
2023-10-30T23:17:36.970Z,78.14
2023-10-30T23:20:05.728Z,78.26
2023-10-30T23:22:33.717Z,78.39
2023-10-30T23:25:02.343Z,78.33
2023-10-30T23:27:30.385Z,78.38
2023-10-30T23:29:59.197Z,78.48
2023-10-30T23:32:27.174Z,78.63
2023-10-30T23:34:55.807Z,78.68
2023-10-30T23:37:23.834Z,78.68
2023-10-30T23:39:52.268Z,78.78
2023-10-30T23:42:20.352Z,78.85
2023-10-30T23:44:48.417Z,78.85
2023-10-30T23:47:16.486Z,78.82
2023-10-30T23:49:44.473Z,78.95
2023-10-30T23:52:12.559Z,78.98
2023-10-30T23:54:40.757Z,78.96
2023-10-30T23:57:08.721Z,78.98
2023-10-30T23:59:36.681Z,79.01
